Time;durP1;ratioP1;P1;durP2;ratioP2;P2;SDS_P1;SDS_P2;PMS_P1;PMS_P2;Temp;Humidity;BMP_temperature;BMP_pressure;BME280_temperature;BME280_humidity;BME280_pressure;Samples;Min_cycle;Max_cycle;Signal;HPM_P1;HPM_P2
2022/07/25 00:01:48;;;;;;;15.10;13.18;;;19.60;99.90;;;;;;5036054;28;20052;-66
2022/07/25 00:04:16;;;;;;;19.58;14.70;;;19.60;99.90;;;;;;5054240;28;20037;-65
2022/07/25 00:06:44;;;;;;;19.30;15.38;;;19.60;99.90;;;;;;5053946;28;20245;-66
2022/07/25 00:09:11;;;;;;;16.63;14.40;;;19.60;99.90;;;;;;5057116;28;20089;-65
2022/07/25 00:11:38;;;;;;;19.02;15.13;;;19.70;99.90;;;;;;5066269;28;20103;-65
2022/07/25 00:14:05;;;;;;;15.98;14.32;;;19.60;99.90;;;;;;5053526;28;20106;-66
2022/07/25 00:16:32;;;;;;;17.35;13.95;;;19.70;99.90;;;;;;5061948;28;20097;-65
2022/07/25 00:18:59;;;;;;;22.42;15.38;;;19.70;99.90;;;;;;5070609;28;20048;-67
2022/07/25 00:21:27;;;;;;;16.60;14.63;;;19.70;99.90;;;;;;5074482;28;20059;-66
2022/07/25 00:23:54;;;;;;;16.38;14.68;;;19.70;99.90;;;;;;5073435;28;20067;-66
2022/07/25 00:26:20;;;;;;;16.58;14.45;;;19.70;99.90;;;;;;5074133;28;20105;-66
2022/07/25 00:28:47;;;;;;;15.93;14.00;;;19.70;99.90;;;;;;5055689;28;20709;-65
2022/07/25 00:31:14;;;;;;;16.23;14.55;;;19.60;99.90;;;;;;5052054;28;20983;-66
2022/07/25 00:33:41;;;;;;;17.13;15.02;;;19.60;99.90;;;;;;5053296;28;20556;-65
2022/07/25 00:36:08;;;;;;;16.42;14.77;;;19.60;99.90;;;;;;5054020;28;20579;-66
2022/07/25 00:38:35;;;;;;;16.35;14.75;;;19.60;99.90;;;;;;5071817;28;20051;-66
2022/07/25 00:41:03;;;;;;;15.73;14.02;;;19.60;99.90;;;;;;5055478;28;20828;-65
2022/07/25 00:43:30;;;;;;;16.00;14.15;;;19.60;99.90;;;;;;5055795;28;20059;-66
2022/07/25 00:45:58;;;;;;;16.83;15.02;;;19.50;99.90;;;;;;5073471;28;20051;-65
2022/07/25 00:48:26;;;;;;;17.08;15.25;;;19.50;99.90;;;;;;5074445;28;20056;-66
2022/07/25 00:50:55;;;;;;;17.15;15.23;;;19.50;99.90;;;;;;5069118;28;20048;-66
2022/07/25 00:53:22;;;;;;;16.27;14.60;;;19.50;99.90;;;;;;5057894;28;20040;-65
2022/07/25 00:55:50;;;;;;;17.02;14.80;;;19.50;99.90;;;;;;5057479;28;20570;-65
2022/07/25 00:58:17;;;;;;;17.10;15.32;;;19.50;99.90;;;;;;5057370;28;20039;-69
2022/07/25 01:00:44;;;;;;;17.70;15.35;;;19.50;99.90;;;;;;5057961;28;20060;-67
2022/07/25 01:03:11;;;;;;;18.42;15.00;;;19.40;99.90;;;;;;5055883;28;20048;-65
2022/07/25 01:05:38;;;;;;;19.00;15.32;;;19.40;99.90;;;;;;5039763;28;20501;-67
2022/07/25 01:08:06;;;;;;;18.55;16.65;;;19.40;99.90;;;;;;5056917;28;20508;-67
2022/07/25 01:10:33;;;;;;;17.77;15.48;;;19.30;99.90;;;;;;5072068;28;20040;-67
2022/07/25 01:13:00;;;;;;;20.08;15.48;;;19.30;99.90;;;;;;5058097;28;20032;-67
2022/07/25 01:15:27;;;;;;;25.02;15.98;;;19.30;99.90;;;;;;5057541;28;20037;-67
2022/07/25 01:17:53;;;;;;;25.17;16.17;;;19.30;99.90;;;;;;5066472;28;20044;-67
2022/07/25 01:20:26;;;;;;;16.38;14.73;;;19.30;99.90;;;;;;5076524;28;20044;-67
2022/07/25 01:22:53;;;;;;;18.98;15.45;;;19.40;99.90;;;;;;5059536;28;20039;-67
2022/07/25 01:25:20;;;;;;;20.15;15.30;;;19.40;99.90;;;;;;5058464;28;20063;-67
2022/07/25 01:27:48;;;;;;;16.75;14.70;;;19.40;99.90;;;;;;5077625;28;20043;-65
2022/07/25 01:30:22;;;;;;;24.25;15.20;;;19.40;99.90;;;;;;5076878;28;20052;-65
2022/07/25 01:32:49;;;;;;;19.35;16.08;;;19.40;99.90;;;;;;5060731;28;20088;-65
2022/07/25 01:35:16;;;;;;;16.38;14.63;;;19.40;99.90;;;;;;5056769;28;20053;-66
2022/07/25 01:37:43;;;;;;;17.08;15.32;;;19.40;99.90;;;;;;5066299;28;20052;-66
2022/07/25 01:40:12;;;;;;;18.27;16.20;;;19.40;99.90;;;;;;5056359;28;20597;-66
2022/07/25 01:42:40;;;;;;;17.48;15.07;;;19.40;99.90;;;;;;5055688;28;20496;-66
2022/07/25 01:45:08;;;;;;;17.17;15.40;;;19.40;99.90;;;;;;5056500;28;20036;-66
2022/07/25 01:47:34;;;;;;;17.63;15.77;;;19.40;99.90;;;;;;5057316;28;20048;-66
2022/07/25 01:50:02;;;;;;;17.77;15.85;;;19.40;99.90;;;;;;5056882;28;20041;-66
2022/07/25 01:52:28;;;;;;;16.75;15.05;;;19.40;99.90;;;;;;5068195;28;20051;-66
2022/07/25 01:54:55;;;;;;;15.90;14.30;;;19.40;99.90;;;;;;5076553;28;20044;-66
2022/07/25 01:57:22;;;;;;;16.60;14.93;;;19.30;99.90;;;;;;5076429;28;20074;-66
2022/07/25 01:59:56;;;;;;;17.45;14.57;;;19.30;99.90;;;;;;5076717;28;20051;-66
2022/07/25 02:02:23;;;;;;;18.02;14.68;;;19.30;99.90;;;;;;5076037;28;20044;-66
2022/07/25 02:04:50;;;;;;;16.85;14.60;;;19.30;99.90;;;;;;5075670;28;20043;-66
2022/07/25 02:07:17;;;;;;;15.48;13.88;;;19.20;99.90;;;;;;5075934;28;20043;-66
2022/07/25 02:09:43;;;;;;;17.98;15.35;;;19.20;99.90;;;;;;5068437;28;20762;-67
2022/07/25 02:12:10;;;;;;;15.95;14.38;;;19.20;99.90;;;;;;5067124;28;20044;-66
2022/07/25 02:14:37;;;;;;;17.02;15.13;;;19.10;99.90;;;;;;5059022;28;20122;-66
2022/07/25 02:17:04;;;;;;;16.33;14.63;;;19.10;99.90;;;;;;5057090;28;20090;-66
2022/07/25 02:19:31;;;;;;;18.60;14.70;;;19.10;99.90;;;;;;5069226;28;20047;-66
2022/07/25 02:21:58;;;;;;;19.08;16.08;;;19.00;99.90;;;;;;5076177;28;20044;-66
2022/07/25 02:24:25;;;;;;;16.75;14.98;;;19.00;99.90;;;;;;5075545;28;20104;-66
2022/07/25 02:26:51;;;;;;;16.33;14.63;;;19.00;99.90;;;;;;5076448;28;20040;-66
2022/07/25 02:29:18;;;;;;;19.15;14.63;;;18.90;99.90;;;;;;5076166;28;20964;-66
2022/07/25 02:31:48;;;;;;;17.08;15.38;;;18.90;99.90;;;;;;5068707;28;20036;-66
2022/07/25 02:34:14;;;;;;;18.08;16.27;;;18.90;99.90;;;;;;5054189;28;20064;-66
2022/07/25 02:36:41;;;;;;;16.35;14.75;;;18.90;99.90;;;;;;5062985;28;20048;-66
2022/07/25 02:39:08;;;;;;;17.42;15.63;;;18.90;99.90;;;;;;5055565;28;20056;-67
2022/07/25 02:41:35;;;;;;;17.55;15.57;;;18.80;99.90;;;;;;5055353;28;20093;-66
2022/07/25 02:44:03;;;;;;;17.40;15.60;;;18.90;99.90;;;;;;5055600;28;20506;-66
2022/07/25 02:46:31;;;;;;;17.38;15.63;;;18.80;99.90;;;;;;5055395;28;20119;-66
2022/07/25 02:48:58;;;;;;;16.88;15.10;;;18.80;99.90;;;;;;5056466;28;20049;-66
2022/07/25 02:51:25;;;;;;;20.00;15.27;;;18.80;99.90;;;;;;5056939;28;20048;-66
2022/07/25 02:53:52;;;;;;;18.02;16.15;;;18.80;99.90;;;;;;5055923;28;20076;-66
2022/07/25 02:56:34;;;;;;;17.95;15.52;;;18.80;99.90;;;;;;5057144;28;20129;-66
2022/07/25 02:59:01;;;;;;;16.63;14.98;;;18.80;99.90;;;;;;5056462;28;20063;-66
2022/07/25 03:01:28;;;;;;;17.30;15.45;;;18.70;99.90;;;;;;5068910;28;20032;-65
2022/07/25 03:03:55;;;;;;;19.83;15.07;;;18.70;99.90;;;;;;5075340;28;20039;-66
2022/07/25 03:06:22;;;;;;;18.15;16.02;;;18.70;99.90;;;;;;5058911;28;20056;-66
2022/07/25 03:08:48;;;;;;;18.55;16.13;;;18.60;99.90;;;;;;5076095;28;20085;-66
2022/07/25 03:11:15;;;;;;;19.02;16.05;;;18.60;99.90;;;;;;5072369;28;20051;-66
2022/07/25 03:13:42;;;;;;;20.95;16.08;;;18.50;99.90;;;;;;5055583;28;20036;-66
2022/07/25 03:16:09;;;;;;;19.10;16.10;;;18.50;99.90;;;;;;5056434;28;20054;-66
2022/07/25 03:18:36;;;;;;;20.35;16.15;;;18.50;99.90;;;;;;5038479;28;20581;-66
2022/07/25 03:21:03;;;;;;;17.73;15.18;;;18.50;99.90;;;;;;5072929;28;20046;-66
2022/07/25 03:23:30;;;;;;;18.27;16.30;;;18.50;99.90;;;;;;5076599;28;20076;-66
2022/07/25 03:25:57;;;;;;;18.20;16.05;;;18.50;99.90;;;;;;5075768;28;20036;-66
2022/07/25 03:28:24;;;;;;;16.13;14.63;;;18.50;99.90;;;;;;5076557;28;20040;-66
2022/07/25 03:30:51;;;;;;;15.90;14.40;;;18.50;99.90;;;;;;5075703;28;20123;-66
2022/07/25 03:33:18;;;;;;;19.02;16.40;;;18.50;99.90;;;;;;5075786;28;20129;-66
2022/07/25 03:35:45;;;;;;;21.55;15.73;;;18.50;99.90;;;;;;5072216;28;20043;-66
2022/07/25 03:38:12;;;;;;;20.42;16.30;;;18.50;99.90;;;;;;5070567;28;20521;-66
2022/07/25 03:40:39;;;;;;;18.02;15.15;;;18.50;99.90;;;;;;5076128;28;20044;-66
2022/07/25 03:43:05;;;;;;;18.70;16.70;;;18.50;99.90;;;;;;5075497;28;20059;-66
2022/07/25 03:45:32;;;;;;;17.48;15.18;;;18.50;99.90;;;;;;5075873;28;20913;-66
2022/07/25 03:47:59;;;;;;;20.58;16.13;;;18.50;99.90;;;;;;5074253;28;20036;-66
2022/07/25 03:50:26;;;;;;;16.58;15.05;;;18.50;99.90;;;;;;5076454;28;20087;-66
2022/07/25 03:52:53;;;;;;;17.48;15.63;;;18.50;99.90;;;;;;5072829;28;20066;-66
2022/07/25 03:55:20;;;;;;;16.67;14.85;;;18.50;99.90;;;;;;5054437;28;20048;-66
2022/07/25 03:57:46;;;;;;;17.85;16.00;;;18.60;99.90;;;;;;5054198;28;20064;-66
2022/07/25 04:00:13;;;;;;;17.58;15.57;;;18.60;99.90;;;;;;5055405;28;20056;-67
2022/07/25 04:02:40;;;;;;;18.70;16.70;;;18.50;99.90;;;;;;5055546;28;20047;-65
2022/07/25 04:05:08;;;;;;;19.77;15.93;;;18.50;99.90;;;;;;5054910;28;20044;-66
2022/07/25 04:07:36;;;;;;;18.98;17.00;;;18.50;99.90;;;;;;5055706;28;20040;-66
2022/07/25 04:10:04;;;;;;;17.80;15.85;;;18.50;99.90;;;;;;5064035;28;20047;-66
2022/07/25 04:12:31;;;;;;;16.30;14.35;;;18.50;99.90;;;;;;5061302;28;20040;-66
2022/07/25 04:14:58;;;;;;;19.38;15.57;;;18.50;99.90;;;;;;5054859;28;20563;-67
2022/07/25 04:17:25;;;;;;;18.15;14.95;;;18.60;99.90;;;;;;5055666;28;20899;-66
2022/07/25 04:19:52;;;;;;;19.73;15.07;;;18.60;99.90;;;;;;5055599;28;20040;-66
2022/07/25 04:22:19;;;;;;;16.85;15.05;;;18.60;99.90;;;;;;5071042;28;20420;-66
2022/07/25 04:24:46;;;;;;;20.10;15.60;;;18.70;99.90;;;;;;5056973;28;20050;-54
2022/07/25 04:27:12;;;;;;;19.00;13.77;;;18.80;99.90;;;;;;5061435;28;20861;-53
2022/07/25 04:29:39;;;;;;;16.98;15.27;;;18.80;99.90;;;;;;5082333;28;20039;-53
2022/07/25 04:32:06;;;;;;;16.60;14.77;;;18.80;99.90;;;;;;5081804;28;20520;-53
2022/07/25 04:34:33;;;;;;;16.35;14.43;;;18.90;99.90;;;;;;5082231;28;20121;-53
2022/07/25 04:37:00;;;;;;;15.75;14.13;;;19.00;99.90;;;;;;5072291;28;20122;-54
2022/07/25 04:39:26;;;;;;;16.60;14.15;;;19.10;99.90;;;;;;5081968;28;20079;-54
2022/07/25 04:41:53;;;;;;;15.45;13.85;;;19.10;99.90;;;;;;5064115;28;20043;-54
2022/07/25 04:44:20;;;;;;;14.77;13.38;;;19.20;99.90;;;;;;5080485;28;20089;-54
2022/07/25 04:46:47;;;;;;;15.23;13.63;;;19.20;99.90;;;;;;5082422;28;20055;-54
2022/07/25 04:49:13;;;;;;;17.90;13.93;;;19.30;99.90;;;;;;5081383;28;20063;-55
2022/07/25 04:51:40;;;;;;;16.98;14.73;;;19.30;99.90;;;;;;5082666;28;20383;-53
2022/07/25 04:54:08;;;;;;;16.45;14.75;;;19.40;99.90;;;;;;5080661;28;20050;-53
2022/07/25 04:56:35;;;;;;;17.67;15.40;;;19.40;99.90;;;;;;5082256;28;20470;-54
2022/07/25 04:59:02;;;;;;;15.82;14.20;;;19.50;99.90;;;;;;5081745;28;20044;-52
2022/07/25 05:01:33;;;;;;;15.73;14.15;;;19.50;99.90;;;;;;5082572;28;20811;-53
2022/07/25 05:04:00;;;;;;;17.27;15.48;;;19.60;99.90;;;;;;5082015;28;20283;-53
2022/07/25 05:06:27;;;;;;;16.05;14.40;;;19.70;99.90;;;;;;5079815;28;20730;-52
2022/07/25 05:08:54;;;;;;;17.52;15.30;;;19.70;99.90;;;;;;5079633;28;20044;-57
2022/07/25 05:11:21;;;;;;;19.15;14.65;;;19.80;99.90;;;;;;5066774;28;20528;-53
2022/07/25 05:13:48;;;;;;;14.95;13.45;;;19.80;99.90;;;;;;5071524;28;20055;-51
2022/07/25 05:16:15;;;;;;;16.00;14.20;;;19.90;99.90;;;;;;5060954;28;20055;-53
2022/07/25 05:18:42;;;;;;;15.60;14.00;;;19.90;99.90;;;;;;5061573;28;20124;-53
2022/07/25 05:21:10;;;;;;;19.17;14.00;;;20.00;99.90;;;;;;5063069;28;20040;-52
2022/07/25 05:23:38;;;;;;;16.52;14.68;;;20.00;99.90;;;;;;5079520;28;20044;-52
2022/07/25 05:26:05;;;;;;;19.33;15.07;;;20.10;99.90;;;;;;5081808;28;20151;-53
2022/07/25 05:28:32;;;;;;;19.35;14.48;;;20.20;99.90;;;;;;5081807;28;20051;-52
2022/07/25 05:30:59;;;;;;;15.65;14.15;;;20.20;99.90;;;;;;5080282;28;20123;-52
2022/07/25 05:33:26;;;;;;;15.57;13.98;;;20.30;99.90;;;;;;5060939;28;20093;-52
2022/07/25 05:35:53;;;;;;;15.48;13.98;;;20.30;99.90;;;;;;5061367;28;20734;-52
2022/07/25 05:38:20;;;;;;;17.98;14.32;;;20.40;99.90;;;;;;5073198;28;20097;-52
2022/07/25 05:40:48;;;;;;;17.27;15.43;;;20.40;99.90;;;;;;5078729;28;20054;-51
2022/07/25 05:43:14;;;;;;;21.80;13.77;;;20.50;99.90;;;;;;5077417;28;20051;-53
2022/07/25 05:45:41;;;;;;;17.65;15.82;;;20.70;99.90;;;;;;5078477;28;20043;-51
2022/07/25 05:48:08;;;;;;;16.33;14.50;;;20.70;99.90;;;;;;5078468;28;20692;-53
2022/07/25 05:50:38;;;;;;;16.85;14.68;;;20.80;99.90;;;;;;5078070;28;20050;-53
2022/07/25 05:53:04;;;;;;;16.08;14.18;;;21.00;99.90;;;;;;5076300;28;20120;-53
2022/07/25 05:55:31;;;;;;;15.93;14.18;;;21.10;99.90;;;;;;5057884;28;20052;-53
2022/07/25 05:57:58;;;;;;;15.45;13.90;;;21.20;99.90;;;;;;5057882;28;20044;-52
2022/07/25 06:00:28;;;;;;;16.10;14.52;;;21.30;99.90;;;;;;5057552;28;20048;-53
2022/07/25 06:02:58;;;;;;;20.60;13.88;;;21.40;99.90;;;;;;5056390;28;20045;-52
2022/07/25 06:05:25;;;;;;;19.00;14.00;;;21.50;99.90;;;;;;5057156;28;20036;-52
2022/07/25 06:07:52;;;;;;;16.52;14.38;;;21.60;99.90;;;;;;5057988;28;20735;-52
2022/07/25 06:10:20;;;;;;;15.63;14.00;;;21.70;99.90;;;;;;5068644;28;20609;-52
2022/07/25 06:12:47;;;;;;;16.50;14.88;;;21.80;99.90;;;;;;5060026;28;20032;-50
2022/07/25 06:15:15;;;;;;;16.58;13.38;;;21.90;99.90;;;;;;5057439;28;20045;-54
2022/07/25 06:17:50;;;;;;;16.45;13.40;;;22.00;99.90;;;;;;5040561;28;20036;-52
2022/07/25 06:20:17;;;;;;;15.85;14.25;;;22.10;99.90;;;;;;5057393;28;20048;-51
2022/07/25 06:22:44;;;;;;;15.43;13.82;;;22.20;99.90;;;;;;5061488;28;20040;-53
2022/07/25 06:25:11;;;;;;;18.27;14.60;;;22.30;99.90;;;;;;5054580;28;20036;-53
2022/07/25 06:27:38;;;;;;;16.25;12.88;;;22.40;99.90;;;;;;5059214;28;20048;-62
2022/07/25 06:30:06;;;;;;;14.30;12.88;;;22.60;99.90;;;;;;5077391;28;20074;-61
2022/07/25 06:32:46;;;;;;;17.15;13.10;;;22.70;99.90;;;;;;5028555;28;20056;-62
2022/07/25 06:35:13;;;;;;;14.07;12.57;;;22.80;99.90;;;;;;5056819;28;20036;-61
2022/07/25 06:37:40;;;;;;;14.90;13.40;;;22.90;99.90;;;;;;5065901;28;20044;-61
2022/07/25 06:40:09;;;;;;;16.25;14.65;;;23.10;99.90;;;;;;5056426;28;20059;-61
2022/07/25 06:42:43;;;;;;;14.05;12.55;;;23.20;99.90;;;;;;5039247;28;20617;-61
2022/07/25 06:45:11;;;;;;;16.05;12.82;;;23.30;99.90;;;;;;5039167;28;20048;-61
2022/07/25 06:47:39;;;;;;;16.42;13.65;;;23.50;99.90;;;;;;5055966;28;20052;-62
2022/07/25 06:50:08;;;;;;;14.18;12.73;;;23.60;99.90;;;;;;5056128;28;20041;-61
2022/07/25 06:52:37;;;;;;;14.48;12.65;;;23.70;99.90;;;;;;5038596;28;20044;-59
2022/07/25 06:55:06;;;;;;;14.75;13.20;;;23.80;99.90;;;;;;5067534;28;20076;-65
2022/07/25 06:57:33;;;;;;;13.95;12.35;;;23.90;99.90;;;;;;5076346;28;20036;-63
2022/07/25 07:00:01;;;;;;;15.13;13.52;;;24.00;99.90;;;;;;5077227;28;20048;-61
2022/07/25 07:02:28;;;;;;;16.60;13.68;;;24.20;99.90;;;;;;5075621;28;20037;-63
2022/07/25 07:04:55;;;;;;;13.80;11.77;;;24.30;99.90;;;;;;5074889;28;20043;-63
2022/07/25 07:07:22;;;;;;;15.23;12.70;;;24.40;99.90;;;;;;5074480;28;20435;-63
2022/07/25 07:09:49;;;;;;;15.15;13.65;;;24.60;99.90;;;;;;5075244;28;20051;-61
2022/07/25 07:12:15;;;;;;;13.75;12.35;;;24.70;99.90;;;;;;5069328;28;20052;-62
2022/07/25 07:14:44;;;;;;;13.75;12.45;;;24.80;99.90;;;;;;5039206;28;20110;-64
2022/07/25 07:17:10;;;;;;;15.95;13.60;;;25.00;99.90;;;;;;5063192;28;20066;-64
2022/07/25 07:19:43;;;;;;;15.98;12.48;;;25.10;99.90;;;;;;5076658;28;20602;-62
2022/07/25 07:22:10;;;;;;;13.68;12.13;;;25.30;99.90;;;;;;5076549;28;20115;-62
2022/07/25 07:24:39;;;;;;;19.33;12.98;;;25.40;99.90;;;;;;5074364;28;20048;-62
2022/07/25 07:27:13;;;;;;;16.25;11.80;;;25.50;99.90;;;;;;5074143;28;20039;-61
2022/07/25 07:29:44;;;;;;;17.75;12.38;;;25.70;99.90;;;;;;5073391;28;20469;-61
2022/07/25 07:32:12;;;;;;;13.13;11.68;;;25.80;99.90;;;;;;5063367;28;20050;-63
2022/07/25 07:34:39;;;;;;;15.63;11.80;;;26.00;99.90;;;;;;5052946;28;20036;-64
2022/07/25 07:37:05;;;;;;;11.27;10.02;;;26.20;99.90;;;;;;5061799;28;20889;-64
2022/07/25 07:39:32;;;;;;;11.20;9.02;;;26.40;99.90;;;;;;5053153;28;20052;-62
2022/07/25 07:41:59;;;;;;;8.80;8.00;;;26.60;97.80;;;;;;5053974;28;20044;-60
2022/07/25 07:44:26;;;;;;;9.55;7.97;;;26.80;95.20;;;;;;5052608;28;20677;-61
2022/07/25 07:46:53;;;;;;;9.48;8.45;;;27.00;90.10;;;;;;5053540;28;20058;-61
2022/07/25 07:49:20;;;;;;;9.73;8.70;;;27.10;81.10;;;;;;5053531;28;20044;-61
2022/07/25 07:51:46;;;;;;;8.38;7.43;;;27.30;79.50;;;;;;5051952;28;20075;-62
2022/07/25 07:56:59;;;;;;;9.20;6.97;;;27.60;71.00;;;;;;5052016;28;20048;-66
2022/07/25 07:59:26;;;;;;;8.38;7.32;;;27.80;63.50;;;;;;5053108;28;20048;-65
2022/07/25 08:01:52;;;;;;;7.20;6.50;;;27.90;62.10;;;;;;5052462;28;20056;-65
2022/07/25 08:04:19;;;;;;;13.65;7.95;;;28.10;57.20;;;;;;5053462;28;20049;-67
2022/07/25 08:06:46;;;;;;;8.90;6.60;;;28.20;57.30;;;;;;5054095;28;20041;-66
2022/07/25 08:09:13;;;;;;;9.35;6.50;;;28.40;56.00;;;;;;5057377;28;20028;-64
2022/07/25 08:11:40;;;;;;;8.68;6.00;;;28.50;54.60;;;;;;5066835;28;20047;-65
2022/07/25 08:14:06;;;;;;;9.65;6.82;;;28.70;54.70;;;;;;5053746;28;20560;-65
2022/07/25 08:16:34;;;;;;;7.18;6.15;;;29.00;54.00;;;;;;5057986;28;20139;-65
2022/07/25 08:19:01;;;;;;;10.18;6.82;;;29.40;53.30;;;;;;5073672;28;20055;-67
2022/07/25 08:21:27;;;;;;;7.22;6.53;;;29.80;50.80;;;;;;5074127;28;20040;-66
2022/07/25 08:23:54;;;;;;;7.72;6.10;;;30.10;50.40;;;;;;5054351;28;20145;-66
2022/07/25 08:26:21;;;;;;;6.80;6.10;;;30.50;51.00;;;;;;5070961;28;20044;-66
2022/07/25 08:28:48;;;;;;;7.60;6.13;;;30.70;48.20;;;;;;5074583;28;20122;-65
2022/07/25 08:31:35;;;;;;;7.53;6.72;;;30.90;48.00;;;;;;5067752;28;20056;-65
2022/07/25 08:34:02;;;;;;;6.90;6.03;;;31.00;47.80;;;;;;5053230;28;20047;-63
2022/07/25 08:36:30;;;;;;;8.75;6.28;;;31.20;47.80;;;;;;5061344;28;20051;-63
2022/07/25 08:39:00;;;;;;;10.90;6.88;;;31.20;46.60;;;;;;5053279;28;20123;-63
2022/07/25 08:41:27;;;;;;;9.02;6.78;;;31.40;47.70;;;;;;5052870;28;20045;-63
2022/07/25 08:43:54;;;;;;;9.23;6.30;;;31.50;45.90;;;;;;5053054;28;20049;-62
2022/07/25 08:46:22;;;;;;;10.18;6.47;;;31.60;45.10;;;;;;5052865;28;20102;-63
2022/07/25 08:48:50;;;;;;;7.50;6.40;;;31.70;45.20;;;;;;5053229;28;20045;-63
2022/07/25 08:51:18;;;;;;;10.15;6.60;;;31.80;46.10;;;;;;5052168;28;20102;-63
2022/07/25 08:53:45;;;;;;;7.63;6.88;;;32.10;46.70;;;;;;5052944;28;20811;-63
2022/07/25 08:56:14;;;;;;;7.20;6.50;;;32.40;46.60;;;;;;5034158;28;20052;-64
2022/07/25 08:58:48;;;;;;;7.40;6.70;;;32.60;46.30;;;;;;5052653;28;20109;-64
2022/07/25 09:01:15;;;;;;;7.43;6.20;;;32.80;46.90;;;;;;5053407;28;20798;-65
2022/07/25 09:03:42;;;;;;;6.57;5.97;;;33.00;46.90;;;;;;5052069;28;20609;-63
2022/07/25 09:06:27;;;;;;;7.93;7.18;;;33.20;43.00;;;;;;5053047;28;20037;-63
2022/07/25 09:08:57;;;;;;;8.82;6.68;;;33.20;43.60;;;;;;5053510;28;20587;-63
2022/07/25 09:11:30;;;;;;;7.00;6.30;;;33.30;45.10;;;;;;5066347;28;20882;-63
2022/07/25 09:14:03;;;;;;;8.05;7.35;;;33.30;46.30;;;;;;5037579;28;21011;-63
2022/07/25 09:16:34;;;;;;;8.77;7.55;;;33.50;45.00;;;;;;5056836;28;20911;-63
2022/07/25 09:19:14;;;;;;;11.77;7.38;;;33.60;46.20;;;;;;5054284;28;20142;-61
2022/07/25 09:21:42;;;;;;;9.25;7.93;;;33.80;44.50;;;;;;5056281;28;20064;-61
2022/07/25 09:24:16;;;;;;;8.50;7.70;;;33.80;44.20;;;;;;5054262;28;20045;-61
2022/07/25 09:26:53;;;;;;;7.45;6.75;;;33.90;43.90;;;;;;5068043;28;20047;-61
2022/07/25 09:29:27;;;;;;;11.18;7.72;;;33.80;42.80;;;;;;5073443;28;20574;-62
2022/07/25 09:31:55;;;;;;;10.02;7.82;;;33.70;45.20;;;;;;5067952;28;20078;-62
2022/07/25 09:34:49;;;;;;;10.15;7.60;;;33.70;45.20;;;;;;5055940;28;20078;-62
2022/07/25 09:37:19;;;;;;;8.25;7.50;;;33.60;42.10;;;;;;5044296;28;20587;-63
2022/07/25 09:39:48;;;;;;;7.40;6.70;;;33.60;42.90;;;;;;5056195;28;20045;-63
2022/07/25 09:42:15;;;;;;;12.18;7.85;;;33.70;40.30;;;;;;5055264;28;20056;-62
2022/07/25 09:44:43;;;;;;;8.63;7.78;;;33.60;40.70;;;;;;5055876;28;20056;-62
2022/07/25 09:47:13;;;;;;;7.63;6.75;;;33.50;41.10;;;;;;5055486;28;20044;-62
2022/07/25 09:49:44;;;;;;;7.00;6.35;;;33.60;41.80;;;;;;5054535;28;20044;-62
2022/07/25 09:52:11;;;;;;;7.90;7.15;;;33.60;41.90;;;;;;5055786;28;20041;-62
2022/07/25 09:54:39;;;;;;;7.82;7.05;;;33.80;42.80;;;;;;5055852;28;20051;-63
2022/07/25 09:57:06;;;;;;;9.25;7.47;;;33.90;42.60;;;;;;5054679;28;20107;-63
2022/07/25 09:59:34;;;;;;;12.55;7.50;;;34.10;42.70;;;;;;5054056;28;20147;-62
2022/07/25 10:02:14;;;;;;;8.02;6.82;;;34.40;41.70;;;;;;5056389;28;20086;-62
2022/07/25 10:04:53;;;;;;;8.45;7.55;;;34.60;43.30;;;;;;5054879;28;20091;-62
2022/07/25 10:07:22;;;;;;;8.50;7.65;;;34.70;41.50;;;;;;5055354;28;20040;-62
2022/07/25 10:09:56;;;;;;;8.32;7.00;;;34.80;42.20;;;;;;5064484;28;20097;-62
2022/07/25 10:12:23;;;;;;;7.70;6.88;;;34.90;42.00;;;;;;5062156;28;20734;-62
2022/07/25 10:15:12;;;;;;;8.80;7.93;;;34.90;41.30;;;;;;5036316;28;20052;-62
2022/07/25 10:17:40;;;;;;;8.50;7.70;;;35.10;40.90;;;;;;5053908;28;20947;-62
2022/07/25 10:20:09;;;;;;;8.68;7.88;;;35.20;41.50;;;;;;5054884;28;20071;-62
2022/07/25 10:22:37;;;;;;;8.65;7.78;;;35.20;39.30;;;;;;5055494;28;20137;-62
2022/07/25 10:25:21;;;;;;;11.50;7.97;;;35.20;40.20;;;;;;5054579;28;20044;-63
2022/07/25 10:27:57;;;;;;;11.75;7.32;;;35.20;42.20;;;;;;5067710;28;20101;-63
2022/07/25 10:30:27;;;;;;;8.30;7.60;;;35.30;41.90;;;;;;5074757;28;20773;-64
2022/07/25 10:32:58;;;;;;;8.90;8.02;;;35.20;40.90;;;;;;5057174;28;20627;-62
2022/07/25 10:35:26;;;;;;;10.32;8.63;;;35.20;42.10;;;;;;5055400;28;20052;-64
2022/07/25 10:37:56;;;;;;;9.90;8.18;;;35.20;40.80;;;;;;5066373;28;20040;-64
2022/07/25 10:40:38;;;;;;;9.55;8.38;;;35.10;41.10;;;;;;5075067;28;20044;-65
2022/07/25 10:43:12;;;;;;;9.57;8.68;;;35.10;42.30;;;;;;5074251;28;20062;-65
2022/07/25 10:45:50;;;;;;;9.93;8.25;;;35.00;40.60;;;;;;5075119;28;20044;-64
2022/07/25 10:48:22;;;;;;;8.35;7.55;;;34.90;42.10;;;;;;5078652;28;20511;-62
2022/07/25 10:51:05;;;;;;;9.40;8.50;;;34.90;43.30;;;;;;5082338;28;20819;-61
2022/07/25 10:53:39;;;;;;;11.95;8.55;;;34.90;42.30;;;;;;5081481;28;20048;-62
2022/07/25 10:56:13;;;;;;;9.43;8.48;;;34.90;42.40;;;;;;5081312;28;20044;-62
2022/07/25 10:58:50;;;;;;;9.73;8.38;;;35.00;43.00;;;;;;5081135;28;20093;-62
2022/07/25 11:01:38;;;;;;;11.15;7.82;;;35.10;42.70;;;;;;5081889;28;20040;-62
2022/07/25 11:04:14;;;;;;;8.75;8.00;;;35.20;43.70;;;;;;5081304;28;20036;-62
2022/07/25 11:06:41;;;;;;;8.32;7.47;;;35.30;41.90;;;;;;5080381;28;20311;-62
2022/07/25 11:09:18;;;;;;;7.80;7.10;;;35.40;40.20;;;;;;5078869;28;20565;-62
2022/07/25 11:11:57;;;;;;;7.43;6.82;;;35.40;39.80;;;;;;5070350;28;20047;-62
2022/07/25 11:14:29;;;;;;;7.43;6.75;;;35.50;41.40;;;;;;5066353;28;20047;-62
2022/07/25 11:16:56;;;;;;;8.00;6.80;;;35.60;39.80;;;;;;5060686;28;20048;-62
2022/07/25 11:19:26;;;;;;;7.90;6.90;;;35.70;38.40;;;;;;5061253;28;20612;-62
2022/07/25 11:21:56;;;;;;;11.93;6.38;;;35.60;39.70;;;;;;5059488;28;20052;-62
2022/07/25 11:24:43;;;;;;;9.07;8.15;;;35.50;38.90;;;;;;5059460;28;20052;-63
2022/07/25 11:27:13;;;;;;;11.90;6.70;;;35.40;38.80;;;;;;5060800;28;20112;-62
2022/07/25 11:29:40;;;;;;;7.70;7.00;;;35.40;40.20;;;;;;5079319;28;20094;-62
2022/07/25 11:32:09;;;;;;;8.05;6.70;;;35.50;40.80;;;;;;5069956;28;20488;-62
2022/07/25 11:34:40;;;;;;;7.80;6.72;;;35.50;38.80;;;;;;5060436;28;20467;-62
2022/07/25 11:37:10;;;;;;;7.18;6.57;;;35.40;37.30;;;;;;5065541;28;20047;-62
2022/07/25 11:39:40;;;;;;;7.60;6.80;;;35.20;37.80;;;;;;5080693;28;20108;-62
2022/07/25 11:42:18;;;;;;;9.98;7.00;;;35.20;39.90;;;;;;5081175;28;20147;-62
2022/07/25 11:44:48;;;;;;;7.72;6.82;;;35.10;40.50;;;;;;5080230;28;20043;-62
2022/07/25 11:47:30;;;;;;;11.55;7.55;;;35.00;38.10;;;;;;5081035;28;20075;-62
2022/07/25 11:50:02;;;;;;;11.60;7.00;;;34.90;39.60;;;;;;5080230;28;20044;-63
2022/07/25 11:52:34;;;;;;;8.90;7.15;;;34.80;39.10;;;;;;5080856;28;20040;-62
2022/07/25 11:55:05;;;;;;;9.60;6.95;;;34.70;40.10;;;;;;5080709;28;20117;-62
2022/07/25 11:57:34;;;;;;;8.82;7.30;;;34.70;39.70;;;;;;5057564;28;20558;-62
2022/07/25 12:00:04;;;;;;;7.32;6.57;;;34.70;39.50;;;;;;5059912;28;20098;-62
2022/07/25 12:02:37;;;;;;;9.13;6.10;;;34.80;39.00;;;;;;5060161;28;20117;-62
2022/07/25 12:05:11;;;;;;;9.02;7.47;;;34.80;38.90;;;;;;5059961;28;20082;-62
2022/07/25 12:07:44;;;;;;;5.82;5.32;;;34.70;39.10;;;;;;5042555;28;20047;-62
2022/07/25 12:10:14;;;;;;;7.30;6.32;;;34.80;37.50;;;;;;5059852;28;20127;-62
2022/07/25 12:12:54;;;;;;;7.20;6.50;;;34.70;39.30;;;;;;5075189;28;20448;-64
2022/07/25 12:15:27;;;;;;;7.50;6.80;;;34.80;37.80;;;;;;5060339;28;20143;-64
2022/07/25 12:17:55;;;;;;;8.45;6.00;;;34.90;38.10;;;;;;5069059;28;20105;-63
2022/07/25 12:20:27;;;;;;;8.68;6.35;;;34.90;38.70;;;;;;5080812;28;20040;-64
2022/07/25 12:22:57;;;;;;;7.88;5.93;;;34.80;38.00;;;;;;5074775;28;20052;-63
2022/07/25 12:25:24;;;;;;;6.32;5.63;;;34.80;38.30;;;;;;5080995;28;20044;-63
2022/07/25 12:27:57;;;;;;;13.60;6.07;;;34.70;39.20;;;;;;5079794;28;20028;-64
2022/07/25 12:30:27;;;;;;;6.25;5.68;;;34.80;38.40;;;;;;5050291;28;20131;-63
2022/07/25 12:32:55;;;;;;;6.15;5.65;;;34.80;38.30;;;;;;5063312;28;20587;-66
2022/07/25 12:35:22;;;;;;;8.98;5.82;;;34.90;39.80;;;;;;5060630;28;20044;-65
2022/07/25 12:37:50;;;;;;;6.60;6.00;;;35.00;38.50;;;;;;5068792;28;20733;-63
2022/07/25 12:40:17;;;;;;;8.35;6.03;;;35.20;36.40;;;;;;5059567;28;20052;-63
2022/07/25 12:42:45;;;;;;;7.28;5.63;;;35.20;36.40;;;;;;5059800;28;20052;-63
2022/07/25 12:45:14;;;;;;;6.63;6.03;;;35.10;37.30;;;;;;5059091;28;20760;-63